Time;durP1;ratioP1;P1;durP2;ratioP2;P2;SDS_P1;SDS_P2;PMS_P1;PMS_P2;Temp;Humidity;BMP_temperature;BMP_pressure;BME280_temperature;BME280_humidity;BME280_pressure;Samples;Min_cycle;Max_cycle;Signal;HPM_P1;HPM_P2
2022/04/01 00:00:16;;;;;;;8.10;7.30;;;;;;;4.58;60.61;99612.91;695943;28;969;-82
2022/04/01 00:00:39;;;;;;;8.80;6.85;;;;;;;4.64;60.52;99618.31;690604;28;1865;-82
2022/04/01 00:00:59;;;;;;;9.15;7.07;;;;;;;4.64;61.04;99618.31;690795;28;1083;-82
2022/04/01 00:01:20;;;;;;;8.40;7.20;;;;;;;4.65;60.67;99612.28;687970;28;1060;-82
2022/04/01 00:01:40;;;;;;;8.32;7.47;;;;;;;4.67;60.84;99630.44;687831;28;1052;-82
2022/04/01 00:02:01;;;;;;;8.43;7.60;;;;;;;4.60;60.74;99610.41;693445;28;1234;-82
2022/04/01 00:02:22;;;;;;;8.47;7.60;;;;;;;4.57;60.68;99611.16;690779;28;1141;-82
2022/04/01 00:02:43;;;;;;;8.30;7.43;;;;;;;4.52;60.77;99615.28;688649;28;1582;-82
2022/04/01 00:03:04;;;;;;;8.35;7.32;;;;;;;4.60;61.03;99642.25;693425;28;1279;-82
2022/04/01 00:03:24;;;;;;;8.55;7.30;;;;;;;4.63;60.93;99626.88;693301;28;1368;-82
2022/04/01 00:03:45;;;;;;;9.88;7.47;;;;;;;4.65;60.80;99629.50;687957;28;1183;-83
2022/04/01 00:04:05;;;;;;;9.97;7.43;;;;;;;4.59;60.62;99609.50;688766;28;1559;-81
2022/04/01 00:04:26;;;;;;;8.80;7.50;;;;;;;4.63;60.48;99619.13;690618;28;1855;-82
2022/04/01 00:04:46;;;;;;;8.00;7.20;;;;;;;4.67;60.59;99633.03;693481;28;1052;-82
2022/04/01 00:05:07;;;;;;;8.03;7.20;;;;;;;4.67;60.84;99621.81;687988;28;1903;-82
2022/04/01 00:05:28;;;;;;;8.10;6.90;;;;;;;4.70;60.81;99621.88;690459;28;1777;-82
2022/04/01 00:05:54;;;;;;;8.10;6.95;;;;;;;4.70;60.53;99624.47;693327;28;1876;-82
2022/04/01 00:06:15;;;;;;;7.88;7.00;;;;;;;4.70;60.47;99627.94;687450;28;1550;-81
2022/04/01 00:06:35;;;;;;;7.78;6.97;;;;;;;4.70;60.59;99634.81;688751;28;1324;-82
2022/04/01 00:06:56;;;;;;;7.80;7.00;;;;;;;4.69;60.58;99627.91;690753;28;1267;-82
2022/04/01 00:07:18;;;;;;;8.82;7.20;;;;;;;4.64;60.48;99631.22;690571;28;1477;-82
2022/04/01 00:07:40;;;;;;;8.25;7.20;;;;;;;4.64;60.64;99632.91;685211;28;1074;-82
2022/04/01 00:08:01;;;;;;;8.20;7.10;;;;;;;4.70;60.42;99627.06;689785;28;1169;-82
2022/04/01 00:08:22;;;;;;;7.47;6.78;;;;;;;4.59;60.52;99630.16;690722;28;1434;-82
2022/04/01 00:08:42;;;;;;;7.97;7.10;;;;;;;4.63;60.80;99626.00;690616;28;1273;-82
2022/04/01 00:09:03;;;;;;;8.40;7.38;;;;;;;4.58;60.90;99628.41;688109;28;1191;-82
2022/04/01 00:09:24;;;;;;;8.40;7.40;;;;;;;4.59;60.61;99635.34;687519;28;1183;-82
2022/04/01 00:09:45;;;;;;;8.25;7.05;;;;;;;4.60;60.54;99628.47;690106;28;989;-81
2022/04/01 00:10:09;;;;;;;8.10;7.05;;;;;;;4.60;60.84;99631.94;687935;28;1721;-82
2022/04/01 00:10:30;;;;;;;8.40;7.00;;;;;;;4.63;60.98;99637.22;688692;28;1434;-82
2022/04/01 00:10:51;;;;;;;8.60;7.00;;;;;;;4.55;60.75;99636.09;690257;28;1544;-82
2022/04/01 00:11:11;;;;;;;8.60;6.75;;;;;;;4.52;60.71;99628.19;690933;28;1630;-82
2022/04/01 00:11:32;;;;;;;7.63;6.70;;;;;;;4.62;60.73;99635.47;689970;28;1279;-82
2022/04/01 00:11:53;;;;;;;7.28;6.57;;;;;;;4.56;60.80;99634.34;690253;28;859;-82
2022/04/01 00:12:14;;;;;;;7.57;6.85;;;;;;;4.60;60.65;99639.69;691802;28;942;-82
2022/04/01 00:12:46;;;;;;;7.43;6.63;;;;;;;4.65;60.86;99645.00;693313;28;1250;-82
2022/04/01 00:13:07;;;;;;;7.28;6.57;;;;;;;4.55;61.02;99635.19;693456;28;1189;-82
2022/04/01 00:13:28;;;;;;;7.47;6.78;;;;;;;4.58;60.65;99636.16;693274;28;1138;-81
2022/04/01 00:13:49;;;;;;;7.50;6.80;;;;;;;4.52;60.75;99620.44;689625;28;1850;-82
2022/04/01 00:14:12;;;;;;;7.60;6.90;;;;;;;4.56;60.91;99630.09;687997;28;908;-82
2022/04/01 00:14:33;;;;;;;7.40;6.70;;;;;;;4.54;60.85;99636.88;690851;28;1642;-82
2022/04/01 00:14:54;;;;;;;7.60;6.80;;;;;;;4.50;60.88;99627.28;693556;28;736;-82
2022/04/01 00:15:15;;;;;;;8.47;7.20;;;;;;;4.48;61.01;99634.97;687479;28;1194;-82
2022/04/01 00:15:36;;;;;;;8.13;7.07;;;;;;;4.49;60.83;99638.44;695212;28;1256;-82
2022/04/01 00:15:59;;;;;;;7.70;6.87;;;;;;;4.61;60.87;99648.31;687679;28;1160;-82
2022/04/01 00:16:20;;;;;;;7.80;7.00;;;;;;;4.54;61.00;99631.72;687976;28;1056;-82
2022/04/01 00:16:40;;;;;;;7.65;6.95;;;;;;;4.55;60.77;99630.03;687852;28;1143;-82
2022/04/01 00:17:02;;;;;;;7.47;6.77;;;;;;;4.55;60.79;99633.50;690718;28;1290;-82
2022/04/01 00:17:22;;;;;;;7.10;6.50;;;;;;;4.54;60.69;99631.72;687989;28;1415;-82
2022/04/01 00:17:43;;;;;;;7.40;6.78;;;;;;;4.57;60.96;99644.75;690719;28;1039;-81
2022/04/01 00:18:05;;;;;;;7.45;6.75;;;;;;;4.57;60.97;99644.75;685268;28;1273;-82
2022/04/01 00:18:25;;;;;;;7.30;6.60;;;;;;;4.53;60.90;99642.88;691837;28;1680;-82
2022/04/01 00:18:46;;;;;;;8.30;6.30;;;;;;;4.51;60.92;99640.25;692043;28;1212;-82
2022/04/01 00:19:06;;;;;;;9.67;6.40;;;;;;;4.56;60.73;99634.34;686637;28;1377;-82
2022/04/01 00:19:27;;;;;;;9.70;6.47;;;;;;;4.49;60.78;99631.56;689847;28;1138;-81
2022/04/01 00:19:48;;;;;;;7.95;6.70;;;;;;;4.58;60.99;99643.91;690155;28;1199;-82
2022/04/01 00:20:11;;;;;;;7.70;6.90;;;;;;;4.64;60.70;99648.41;687951;28;1164;-82
2022/04/01 00:20:31;;;;;;;7.30;6.60;;;;;;;4.54;60.51;99636.88;686272;28;1317;-82
2022/04/01 00:20:52;;;;;;;7.25;6.53;;;;;;;4.54;60.65;99636.88;690714;28;772;-82
2022/04/01 00:21:12;;;;;;;6.82;6.20;;;;;;;4.57;61.08;99639.59;687804;28;1068;-81
2022/04/01 00:21:36;;;;;;;7.20;6.50;;;;;;;4.48;60.84;99639.28;689028;28;1155;-82
2022/04/01 00:21:56;;;;;;;7.28;6.57;;;;;;;4.57;60.68;99646.44;687830;28;1098;-82
2022/04/01 00:22:17;;;;;;;9.88;6.68;;;;;;;4.52;60.71;99643.72;682621;28;1554;-82
2022/04/01 00:22:38;;;;;;;10.90;6.97;;;;;;;4.61;61.19;99654.34;685822;28;1728;-82
2022/04/01 00:22:59;;;;;;;10.87;6.90;;;;;;;4.60;60.67;99642.25;685417;28;1444;-82
2022/04/01 00:23:19;;;;;;;7.68;6.88;;;;;;;4.50;61.02;99645.38;693360;28;1301;-82
2022/04/01 00:23:40;;;;;;;7.70;6.90;;;;;;;4.49;61.07;99643.63;696015;28;1314;-82
2022/04/01 00:24:01;;;;;;;7.85;6.82;;;;;;;4.46;60.66;99635.75;693499;28;850;-82
2022/04/01 00:24:22;;;;;;;8.02;6.80;;;;;;;4.53;60.92;99645.47;686046;28;1653;-82
2022/04/01 00:24:43;;;;;;;7.50;6.40;;;;;;;4.64;60.57;99648.41;687762;28;1650;-82
2022/04/01 00:25:04;;;;;;;7.63;6.60;;;;;;;4.57;60.54;99644.75;685856;28;1926;-82
2022/04/01 00:25:24;;;;;;;8.38;6.50;;;;;;;4.60;60.96;99652.59;693286;28;1563;-81
2022/04/01 00:25:45;;;;;;;8.32;6.50;;;;;;;4.58;60.45;99643.03;693278;28;1277;-82
2022/04/01 00:26:06;;;;;;;8.57;6.30;;;;;;;4.61;60.74;99650.91;693415;28;996;-82
2022/04/01 00:26:27;;;;;;;7.22;6.15;;;;;;;4.67;60.33;99652.81;692160;28;1534;-81
2022/04/01 00:26:48;;;;;;;7.60;6.03;;;;;;;4.64;60.28;99649.31;684828;28;1353;-81
2022/04/01 00:27:09;;;;;;;6.70;6.00;;;;;;;4.58;60.64;99649.09;684911;28;1825;-82
2022/04/01 00:27:30;;;;;;;8.13;6.30;;;;;;;4.60;60.61;99649.16;690476;28;1140;-82
2022/04/01 00:27:51;;;;;;;8.30;6.40;;;;;;;4.56;60.61;99649.84;687905;28;1433;-82
2022/04/01 00:28:12;;;;;;;8.48;6.40;;;;;;;4.58;60.62;99651.69;688123;28;1619;-82
2022/04/01 00:28:32;;;;;;;7.55;6.53;;;;;;;4.62;60.65;99656.13;687841;28;1548;-82
2022/04/01 00:28:53;;;;;;;8.30;6.60;;;;;;;4.59;60.33;99644.81;687706;28;1039;-82
2022/04/01 00:29:16;;;;;;;8.53;6.70;;;;;;;4.64;60.51;99658.75;685298;28;1005;-82
2022/04/01 00:29:37;;;;;;;7.25;6.22;;;;;;;4.65;60.27;99658.81;686510;28;1103;-82
2022/04/01 00:29:57;;;;;;;6.90;6.30;;;;;;;4.67;60.55;99652.81;688034;28;716;-83
2022/04/01 00:30:18;;;;;;;7.25;6.55;;;;;;;4.68;60.61;99655.47;691588;28;1309;-82
2022/04/01 00:30:39;;;;;;;7.57;6.70;;;;;;;4.69;60.45;99656.31;690492;28;1170;-82
2022/04/01 00:31:00;;;;;;;7.88;6.60;;;;;;;4.63;60.26;99651.81;685276;28;1416;-82
2022/04/01 00:31:21;;;;;;;7.10;6.40;;;;;;;4.66;60.16;99662.25;690755;28;1081;-82
2022/04/01 00:31:48;;;;;;;7.43;6.43;;;;;;;4.67;60.42;99663.16;690228;28;1212;-82
2022/04/01 00:32:21;;;;;;;7.45;6.50;;;;;;;4.58;60.39;99651.69;687439;28;1636;-82
2022/04/01 00:32:42;;;;;;;7.18;6.57;;;;;;;4.59;60.06;99653.44;684063;28;1437;-82
2022/04/01 00:33:04;;;;;;;7.47;6.88;;;;;;;4.65;60.48;99665.66;690533;28;1329;-83
2022/04/01 00:33:25;;;;;;;7.80;7.10;;;;;;;4.63;60.39;99655.31;693253;28;1055;-82
2022/04/01 00:33:46;;;;;;;7.55;6.85;;;;;;;4.66;60.24;99657.09;685216;28;1159;-82
2022/04/01 00:34:16;;;;;;;7.22;6.50;;;;;;;4.67;60.31;99653.72;684797;28;1139;-82
2022/04/01 00:34:37;;;;;;;7.25;6.55;;;;;;;4.70;60.34;99655.50;685197;28;1187;-82
2022/04/01 00:34:58;;;;;;;7.20;6.50;;;;;;;4.71;60.37;99654.69;687950;28;1145;-82
2022/04/01 00:35:19;;;;;;;7.28;6.57;;;;;;;4.70;60.11;99655.50;687915;28;1250;-81
2022/04/01 00:35:40;;;;;;;7.50;6.70;;;;;;;4.65;60.25;99642.41;692691;28;1079;-82
2022/04/01 00:36:00;;;;;;;7.63;6.80;;;;;;;4.61;60.45;99648.31;690732;28;1135;-82
2022/04/01 00:36:21;;;;;;;7.30;6.60;;;;;;;4.65;60.25;99656.22;690524;28;1028;-82
2022/04/01 00:36:48;;;;;;;7.50;6.80;;;;;;;4.70;60.18;99660.66;693004;28;1197;-82
2022/04/01 00:37:08;;;;;;;7.75;7.05;;;;;;;4.68;59.81;99662.31;690541;28;1087;-82
2022/04/01 00:37:29;;;;;;;7.80;7.10;;;;;;;4.68;60.08;99664.91;696779;28;1263;-82
2022/04/01 00:37:50;;;;;;;7.40;6.70;;;;;;;4.70;59.94;99658.06;696110;28;1405;-82
2022/04/01 00:38:11;;;;;;;7.13;6.37;;;;;;;4.71;59.84;99665.88;690220;28;1704;-82
2022/04/01 00:38:32;;;;;;;7.28;6.22;;;;;;;4.69;60.14;99656.31;688912;28;1242;-82
2022/04/01 00:38:52;;;;;;;7.93;6.50;;;;;;;4.69;60.27;99659.81;693378;28;890;-82
2022/04/01 00:39:14;;;;;;;7.65;6.90;;;;;;;4.64;60.12;99659.66;685139;28;1273;-82
2022/04/01 00:39:35;;;;;;;7.40;6.70;;;;;;;4.67;60.02;99664.03;689945;28;1619;-81
2022/04/01 00:39:56;;;;;;;7.55;6.75;;;;;;;4.65;60.34;99665.66;691802;28;878;-82
2022/04/01 00:40:16;;;;;;;8.05;6.90;;;;;;;4.62;60.21;99661.31;690555;28;1723;-82
2022/04/01 00:40:37;;;;;;;8.73;7.00;;;;;;;4.68;60.43;99659.72;695237;28;1048;-82
2022/04/01 00:40:59;;;;;;;7.70;6.70;;;;;;;4.65;60.20;99661.41;696147;28;1208;-82
2022/04/01 00:41:20;;;;;;;6.70;6.10;;;;;;;4.65;60.12;99661.41;693224;28;1351;-82
2022/04/01 00:41:44;;;;;;;6.47;5.90;;;;;;;4.70;60.08;99663.25;692832;28;1144;-82
2022/04/01 00:42:05;;;;;;;6.57;5.97;;;;;;;4.63;60.18;99657.88;687704;28;1125;-82
2022/04/01 00:42:26;;;;;;;6.63;6.03;;;;;;;4.59;59.96;99661.19;685524;28;1203;-82
2022/04/01 00:42:48;;;;;;;6.90;6.20;;;;;;;4.73;60.28;99678.88;690701;28;889;-82
2022/04/01 00:43:09;;;;;;;6.80;6.10;;;;;;;4.72;60.37;99672.81;687894;28;1056;-81
2022/04/01 00:43:31;;;;;;;7.20;6.50;;;;;;;4.67;60.27;99670.91;687861;28;1240;-82
2022/04/01 00:44:13;;;;;;;7.50;6.80;;;;;;;4.63;60.05;99667.34;690713;28;1665;-82
2022/04/01 00:44:36;;;;;;;7.40;6.70;;;;;;;4.64;60.43;99664.81;685721;28;1174;-81
2022/04/01 00:44:58;;;;;;;7.60;6.70;;;;;;;4.61;60.14;99656.94;685033;28;1961;-82
2022/04/01 00:45:19;;;;;;;6.97;6.28;;;;;;;4.63;60.05;99667.34;684624;28;1367;-82
2022/04/01 00:45:39;;;;;;;7.25;6.10;;;;;;;4.61;59.98;99669.84;690491;28;1190;-82
2022/04/01 00:46:00;;;;;;;7.53;6.15;;;;;;;4.64;60.14;99672.56;690861;28;756;-82
2022/04/01 00:46:21;;;;;;;8.63;6.53;;;;;;;4.70;60.23;99673.56;685930;28;839;-82
2022/04/01 00:46:43;;;;;;;9.70;6.53;;;;;;;4.65;60.32;99666.56;685179;28;1452;-82
2022/04/01 00:47:06;;;;;;;8.82;6.55;;;;;;;4.71;60.13;99676.22;692998;28;1582;-82
2022/04/01 00:47:26;;;;;;;7.97;6.32;;;;;;;4.62;60.43;99676.81;690881;28;1444;-82
2022/04/01 00:48:07;;;;;;;7.23;6.40;;;;;;;4.72;60.22;99677.13;695736;28;1584;-82
2022/04/01 00:48:27;;;;;;;7.10;6.40;;;;;;;4.65;60.16;99663.97;688154;28;1226;-82
2022/04/01 00:48:48;;;;;;;6.53;5.93;;;;;;;4.65;60.14;99666.56;689849;28;1256;-82
2022/04/01 00:49:09;;;;;;;6.60;6.00;;;;;;;4.65;60.04;99665.66;685229;28;943;-82
2022/04/01 00:49:31;;;;;;;6.60;5.95;;;;;;;4.69;60.25;99672.72;685397;28;1247;-82
2022/04/01 00:49:54;;;;;;;7.47;6.30;;;;;;;4.67;60.21;99673.50;690368;28;1273;-82
2022/04/01 00:50:14;;;;;;;7.80;6.28;;;;;;;4.70;59.99;99673.56;690622;28;1062;-82
2022/04/01 00:50:35;;;;;;;7.75;6.50;;;;;;;4.68;60.00;99667.50;690328;28;1232;-82
2022/04/01 00:50:55;;;;;;;7.22;6.53;;;;;;;4.76;60.15;99686.72;689522;28;1725;-83
2022/04/01 00:51:19;;;;;;;7.20;6.50;;;;;;;4.69;60.07;99674.41;683540;28;1350;-81
2022/04/01 00:51:42;;;;;;;7.20;6.50;;;;;;;4.63;59.96;99667.34;685013;28;1231;-82
2022/04/01 00:52:07;;;;;;;8.23;6.60;;;;;;;4.69;59.89;99671.81;687696;28;1008;-82
2022/04/01 00:52:30;;;;;;;8.57;6.60;;;;;;;4.71;59.87;99680.53;687697;28;1669;-82
2022/04/01 00:52:50;;;;;;;7.95;6.35;;;;;;;4.61;59.89;99664.69;686023;28;1335;-82
2022/04/01 00:53:11;;;;;;;7.10;6.40;;;;;;;4.61;60.35;99669.84;688010;28;1148;-83
2022/04/01 00:53:32;;;;;;;7.18;6.47;;;;;;;4.64;60.36;99671.66;686653;28;1701;-83
2022/04/01 00:53:52;;;;;;;7.13;6.43;;;;;;;4.61;60.10;99676.75;685407;28;779;-82
2022/04/01 00:54:15;;;;;;;6.97;6.30;;;;;;;4.63;60.12;99683.72;690696;28;941;-82
2022/04/01 00:54:36;;;;;;;6.90;6.30;;;;;;;4.68;60.42;99685.59;694255;28;1602;-81
2022/04/01 00:54:57;;;;;;;6.70;5.97;;;;;;;4.58;60.15;99672.34;696136;28;905;-82
2022/04/01 00:55:18;;;;;;;7.10;6.03;;;;;;;4.67;60.18;99676.97;693452;28;1218;-82
2022/04/01 00:55:40;;;;;;;7.40;5.95;;;;;;;4.68;60.25;99683.00;685047;28;1175;-82
2022/04/01 00:56:00;;;;;;;6.35;5.75;;;;;;;4.62;60.33;99683.66;685114;28;1250;-82
2022/04/01 00:56:23;;;;;;;6.75;6.05;;;;;;;4.58;60.00;99677.50;685148;28;1045;-83
2022/04/01 00:56:44;;;;;;;7.90;6.47;;;;;;;4.56;60.59;99674.00;690035;28;1355;-82
2022/04/01 00:57:08;;;;;;;7.22;6.38;;;;;;;4.64;60.37;99680.31;695867;28;1131;-82
2022/04/01 00:57:29;;;;;;;6.95;6.25;;;;;;;4.70;60.27;99686.50;693833;28;1357;-82
2022/04/01 00:57:50;;;;;;;7.20;6.50;;;;;;;4.64;59.98;99669.09;690252;28;1208;-81
2022/04/01 00:58:11;;;;;;;8.13;6.57;;;;;;;4.62;60.07;99676.81;682489;29;1160;-82
2022/04/01 00:58:32;;;;;;;8.20;6.68;;;;;;;4.57;60.03;99673.19;688809;28;1078;-82
2022/04/01 00:58:52;;;;;;;7.72;6.53;;;;;;;4.60;59.90;99668.09;687797;28;839;-82
2022/04/01 00:59:13;;;;;;;7.30;6.60;;;;;;;4.68;60.15;99676.13;690602;28;981;-83
2022/04/01 00:59:35;;;;;;;7.40;6.60;;;;;;;4.70;60.10;99679.63;691497;28;1499;-82
2022/04/01 00:59:55;;;;;;;7.82;6.88;;;;;;;4.63;60.01;99675.97;693213;28;902;-82
2022/04/01 01:00:17;;;;;;;8.93;7.10;;;;;;;4.65;60.00;99674.31;693170;28;1428;-82
2022/04/01 01:00:50;;;;;;;8.90;6.97;;;;;;;4.68;60.13;99681.31;690413;28;1260;-81
2022/04/01 01:01:11;;;;;;;7.53;6.30;;;;;;;4.65;60.13;99682.06;685101;28;1044;-82
2022/04/01 01:01:34;;;;;;;7.00;6.30;;;;;;;4.67;60.16;99668.31;694829;28;1617;-82
2022/04/01 01:01:55;;;;;;;7.20;6.40;;;;;;;4.65;60.14;99669.16;692631;28;1091;-83
2022/04/01 01:02:16;;;;;;;7.15;6.45;;;;;;;4.72;59.92;99683.16;693168;28;1174;-82
2022/04/01 01:02:39;;;;;;;7.00;6.30;;;;;;;4.69;59.92;99682.16;690453;28;1194;-82
2022/04/01 01:02:59;;;;;;;6.40;5.80;;;;;;;4.71;59.67;99680.53;690642;28;905;-82
2022/04/01 01:03:20;;;;;;;6.40;5.80;;;;;;;4.65;59.89;99670.84;685214;28;1052;-82
2022/04/01 01:03:41;;;;;;;6.40;5.90;;;;;;;4.64;60.03;99674.25;691190;28;1364;-82
2022/04/01 01:04:07;;;;;;;6.80;6.20;;;;;;;4.65;60.10;99689.81;690650;28;1068;-83
2022/04/01 01:04:28;;;;;;;6.78;6.18;;;;;;;4.67;60.41;99686.41;693005;28;2201;-81
2022/04/01 01:04:49;;;;;;;6.97;6.38;;;;;;;4.63;60.25;99677.66;682524;28;1345;-82
2022/04/01 01:05:10;;;;;;;6.95;6.35;;;;;;;4.65;60.20;99684.66;685095;28;1919;-82
2022/04/01 01:05:31;;;;;;;6.78;6.18;;;;;;;4.64;60.35;99688.06;684993;28;1281;-82
2022/04/01 01:05:52;;;;;;;6.38;5.80;;;;;;;4.57;60.33;99675.75;689374;28;1201;-82
2022/04/01 01:06:14;;;;;;;6.40;5.80;;;;;;;4.62;59.99;99684.56;687486;28;1174;-82
2022/04/01 01:06:37;;;;;;;6.60;5.80;;;;;;;4.56;60.34;99676.59;689335;28;1561;-82
2022/04/01 01:07:00;;;;;;;7.60;6.13;;;;;;;4.56;60.31;99679.19;687979;28;754;-82
2022/04/01 01:07:21;;;;;;;7.40;6.03;;;;;;;4.57;60.64;99683.50;693687;28;1106;-82
2022/04/01 01:07:45;;;;;;;6.60;6.00;;;;;;;4.59;60.28;99681.84;690580;28;1179;-82
2022/04/01 01:08:06;;;;;;;7.50;5.70;;;;;;;4.52;60.29;99679.88;693329;28;1060;-82
2022/04/01 01:08:28;;;;;;;6.97;5.63;;;;;;;4.49;60.30;99679.78;690342;28;1487;-82
2022/04/01 01:08:48;;;;;;;6.35;5.55;;;;;;;4.51;60.45;99675.53;696015;28;1100;-82
2022/04/01 01:09:10;;;;;;;6.13;5.60;;;;;;;4.50;60.38;99674.66;690565;28;1162;-82
2022/04/01 01:09:31;;;;;;;6.30;5.70;;;;;;;4.59;60.33;99687.03;689992;28;1335;-82
2022/04/01 01:09:52;;;;;;;6.50;5.90;;;;;;;4.52;60.42;99679.88;693205;28;1175;-82
2022/04/01 01:10:15;;;;;;;6.30;5.70;;;;;;;4.57;60.17;99685.19;693278;28;1274;-82
2022/04/01 01:10:35;;;;;;;6.10;5.50;;;;;;;4.58;60.37;99680.09;693227;28;1115;-81
2022/04/01 01:10:56;;;;;;;6.30;5.70;;;;;;;4.51;60.57;99685.88;687856;28;1009;-82
2022/04/01 01:11:17;;;;;;;7.30;5.90;;;;;;;4.41;60.57;99681.22;693209;28;1074;-82
2022/04/01 01:11:38;;;;;;;7.10;6.10;;;;;;;4.48;60.63;99683.19;686029;28;1244;-83
2022/04/01 01:11:59;;;;;;;6.30;5.70;;;;;;;4.53;60.55;99686.78;687775;28;815;-82
2022/04/01 01:12:20;;;;;;;6.20;5.60;;;;;;;4.46;60.28;99669.31;687718;28;977;-82
2022/04/01 01:12:41;;;;;;;6.35;5.40;;;;;;;4.55;60.76;99690.34;690439;28;1357;-82
2022/04/01 01:13:02;;;;;;;7.03;5.40;;;;;;;4.44;60.70;99673.56;682430;28;1188;-82
2022/04/01 01:13:22;;;;;;;9.65;5.53;;;;;;;4.48;60.54;99678.88;687975;28;851;-82
2022/04/01 01:13:43;;;;;;;9.03;5.57;;;;;;;4.55;60.44;99687.75;690517;28;1286;-81
2022/04/01 01:14:05;;;;;;;8.70;5.80;;;;;;;4.54;60.30;99683.38;692417;28;1170;-82
2022/04/01 01:14:31;;;;;;;5.97;5.47;;;;;;;4.47;60.25;99671.09;690364;28;1131;-82
2022/04/01 01:14:51;;;;;;;5.88;5.38;;;;;;;4.51;60.57;99680.72;692790;28;1540;-82
2022/04/01 01:15:25;;;;;;;5.80;5.00;;;;;;;4.50;60.32;99677.22;687947;28;728;-82
2022/04/01 01:16:23;;;;;;;5.97;5.07;;;;;;;4.59;60.60;99692.19;690529;28;1327;-82
2022/04/01 01:16:46;;;;;;;6.40;5.80;;;;;;;4.53;60.47;99686.78;684708;28;1430;-82
2022/04/01 01:17:11;;;;;;;6.15;5.65;;;;;;;4.42;60.30;99667.47;687416;28;1186;-82
2022/04/01 01:17:32;;;;;;;5.80;5.30;;;;;;;4.44;60.61;99681.31;690530;28;1143;-82
2022/04/01 01:17:52;;;;;;;5.70;5.20;;;;;;;4.43;60.61;99677.88;687412;28;1475;-82
2022/04/01 01:18:17;;;;;;;5.83;5.33;;;;;;;4.41;60.53;99670.88;692505;28;1670;-82
2022/04/01 01:18:38;;;;;;;5.78;5.28;;;;;;;4.49;60.64;99684.94;687585;28;1243;-82
2022/04/01 01:19:08;;;;;;;6.20;5.28;;;;;;;4.50;60.29;99677.22;687852;28;1117;-82
2022/04/01 01:19:30;;;;;;;6.45;5.05;;;;;;;4.50;60.46;99681.53;688026;28;1050;-82
2022/04/01 01:19:50;;;;;;;6.65;5.50;;;;;;;4.50;60.59;99686.69;687678;28;1274;-82
2022/04/01 01:20:14;;;;;;;6.40;5.45;;;;;;;4.54;60.36;99688.56;687829;28;941;-82
2022/04/01 01:20:35;;;;;;;6.53;5.60;;;;;;;4.53;60.50;99686.78;686687;28;2033;-81
2022/04/01 01:20:56;;;;;;;5.68;5.10;;;;;;;4.52;60.74;99690.22;685219;28;981;-82
2022/04/01 01:21:16;;;;;;;5.85;5.25;;;;;;;4.43;60.75;99687.31;685169;28;1188;-82
2022/04/01 01:21:38;;;;;;;5.70;5.20;;;;;;;4.46;60.71;99679.66;686246;28;1318;-82
2022/04/01 01:21:59;;;;;;;5.88;5.38;;;;;;;4.48;60.55;99683.19;684044;28;879;-82
2022/04/01 01:22:20;;;;;;;5.50;5.03;;;;;;;4.48;60.30;99683.19;693122;28;1204;-82
2022/04/01 01:22:41;;;;;;;5.30;4.90;;;;;;;4.50;60.77;99686.69;692841;28;1349;-82
2022/04/01 01:23:02;;;;;;;5.50;5.00;;;;;;;4.52;60.51;99685.03;693335;28;1032;-82
2022/04/01 01:23:30;;;;;;;5.70;5.10;;;;;;;4.43;60.64;99679.56;690432;28;1757;-81
2022/04/01 01:23:51;;;;;;;5.80;5.20;;;;;;;4.38;60.99;99682.84;693266;28;1241;-82
2022/04/01 01:24:15;;;;;;;5.53;5.03;;;;;;;4.45;60.49;99693.41;687853;28;1238;-82
2022/04/01 01:24:37;;;;;;;5.35;4.90;;;;;;;4.45;60.41;99672.72;692057;28;1954;-83
2022/04/01 01:24:59;;;;;;;5.00;4.60;;;;;;;4.46;60.73;99690.88;690528;28;1918;-82
2022/04/01 01:25:21;;;;;;;5.00;4.60;;;;;;;4.49;60.45;99687.53;690465;28;1136;-81
2022/04/01 01:25:41;;;;;;;5.22;4.72;;;;;;;4.55;60.28;99687.75;687606;28;1143;-81
2022/04/01 01:26:03;;;;;;;5.10;4.70;;;;;;;4.54;60.70;99685.97;690509;28;1048;-82
2022/04/01 01:26:23;;;;;;;4.90;4.50;;;;;;;4.46;60.38;99682.25;687967;28;807;-82
2022/04/01 01:26:52;;;;;;;4.77;4.37;;;;;;;4.44;60.73;99682.22;687703;28;1149;-82
2022/04/01 01:27:13;;;;;;;5.18;4.55;;;;;;;4.47;60.78;99692.63;682452;28;978;-82
2022/04/01 01:27:34;;;;;;;5.60;5.00;;;;;;;4.44;60.61;99682.22;687546;28;1901;-82
2022/04/01 01:27:55;;;;;;;5.60;5.00;;;;;;;4.46;60.54;99683.13;690497;28;1185;-82
2022/04/01 01:28:24;;;;;;;5.38;4.97;;;;;;;4.51;60.55;99698.78;693351;28;1008;-82
2022/04/01 01:28:45;;;;;;;5.20;4.80;;;;;;;4.46;60.45;99679.66;690496;28;961;-82
2022/04/01 01:29:09;;;;;;;5.00;4.60;;;;;;;4.40;60.74;99679.47;687720;28;1076;-82
2022/04/01 01:29:30;;;;;;;5.72;4.90;;;;;;;4.43;60.41;99680.44;687224;28;1679;-82
2022/04/01 01:29:51;;;;;;;5.50;4.90;;;;;;;4.52;60.62;99690.22;690383;28;1249;-82
2022/04/01 01:30:12;;;;;;;5.40;4.90;;;;;;;4.46;60.35;99684.81;688547;28;1083;-82
2022/04/01 01:30:33;;;;;;;5.32;4.93;;;;;;;4.50;60.50;99687.56;690341;28;1087;-82
2022/04/01 01:30:54;;;;;;;5.30;4.80;;;;;;;4.51;60.56;99693.63;690660;28;869;-82
2022/04/01 01:31:15;;;;;;;5.20;4.70;;;;;;;4.51;60.34;99688.47;687764;28;1088;-81
2022/04/01 01:31:36;;;;;;;5.10;4.60;;;;;;;4.39;60.53;99683.75;689221;28;1231;-82
2022/04/01 01:32:03;;;;;;;4.97;4.57;;;;;;;4.47;60.51;99692.63;687551;28;1294;-82
2022/04/01 01:32:24;;;;;;;5.18;4.78;;;;;;;4.49;60.27;99697.88;682451;28;1127;-82
2022/04/01 01:32:45;;;;;;;5.25;4.85;;;;;;;4.43;60.74;99689.91;682601;29;1092;-82
2022/04/01 01:33:05;;;;;;;5.50;4.90;;;;;;;4.51;60.92;99699.69;690564;28;1204;-82
2022/04/01 01:33:26;;;;;;;5.20;4.70;;;;;;;4.45;60.34;99690.81;689333;28;1230;-81
2022/04/01 01:33:49;;;;;;;5.60;5.00;;;;;;;4.40;60.42;99687.22;690537;28;1283;-82
2022/04/01 01:34:11;;;;;;;5.70;5.20;;;;;;;4.35;60.79;99680.16;690447;28;1424;-82
2022/04/01 01:34:32;;;;;;;5.53;5.03;;;;;;;4.33;60.61;99676.66;694235;28;1091;-83
2022/04/01 01:34:53;;;;;;;5.22;4.75;;;;;;;4.42;60.64;99694.16;695942;28;795;-82
2022/04/01 01:35:14;;;;;;;5.20;4.70;;;;;;;4.32;60.82;99682.66;687902;28;984;-82
2022/04/01 01:35:34;;;;;;;5.50;4.80;;;;;;;4.40;60.95;99694.97;693048;28;1274;-82
2022/04/01 01:35:55;;;;;;;5.20;4.70;;;;;;;4.42;60.51;99696.75;693259;28;1338;-82
2022/04/01 01:36:16;;;;;;;4.97;4.57;;;;;;;4.36;60.41;99681.91;693328;28;1156;-83
2022/04/01 01:36:37;;;;;;;4.88;4.47;;;;;;;4.41;60.72;99689.81;690310;28;1888;-82
2022/04/01 01:36:59;;;;;;;5.05;4.65;;;;;;;4.37;60.67;99686.25;690622;28;858;-82
2022/04/01 01:37:19;;;;;;;4.80;4.40;;;;;;;4.29;60.83;99679.94;693138;28;1255;-82
2022/04/01 01:37:41;;;;;;;4.80;4.40;;;;;;;4.24;60.79;99677.19;692734;28;1317;-82
2022/04/01 01:38:01;;;;;;;4.50;4.20;;;;;;;4.24;60.71;99679.78;690360;28;1106;-83
2022/04/01 01:38:22;;;;;;;4.72;4.40;;;;;;;4.31;61.12;99680.91;696149;28;853;-82
2022/04/01 01:38:43;;;;;;;4.90;4.50;;;;;;;4.33;61.20;99683.50;690355;28;1213;-82
2022/04/01 01:39:04;;;;;;;5.00;4.60;;;;;;;4.29;60.93;99677.34;687622;28;1561;-82
2022/04/01 01:39:25;;;;;;;4.70;4.32;;;;;;;4.34;60.54;99680.09;687788;28;1060;-82
2022/04/01 01:39:45;;;;;;;4.90;4.50;;;;;;;4.33;60.91;99674.06;689386;28;1209;-82
2022/04/01 01:40:15;;;;;;;5.10;4.70;;;;;;;4.36;60.97;99679.34;687911;28;1009;-82
2022/04/01 01:40:36;;;;;;;5.40;5.00;;;;;;;4.43;60.87;99688.19;692133;28;1146;-82
2022/04/01 01:40:57;;;;;;;5.25;4.85;;;;;;;4.34;60.67;99675.81;687340;28;1193;-82
2022/04/01 01:41:18;;;;;;;5.22;4.82;;;;;;;4.33;60.57;99679.25;693260;28;1143;-82
2022/04/01 01:41:38;;;;;;;4.97;4.57;;;;;;;4.34;60.93;99688.75;693031;28;1233;-82
2022/04/01 01:41:59;;;;;;;5.00;4.60;;;;;;;4.37;60.76;99686.25;687819;28;1021;-82
2022/04/01 01:42:20;;;;;;;5.00;4.60;;;;;;;4.31;60.55;99674.84;690300;28;1009;-82
2022/04/01 01:42:40;;;;;;;5.22;4.82;;;;;;;4.28;60.46;99678.19;689898;28;1277;-82
2022/04/01 01:43:01;;;;;;;5.13;4.72;;;;;;;4.29;60.61;99679.94;685115;28;1240;-82
2022/04/01 01:43:22;;;;;;;5.00;4.60;;;;;;;4.32;61.03;99676.59;685155;28;1378;-82
2022/04/01 01:43:42;;;;;;;4.60;4.20;;;;;;;4.32;60.87;99682.66;693176;28;1269;-82
2022/04/01 01:44:04;;;;;;;6.28;4.40;;;;;;;4.30;60.83;99680.84;690483;28;1048;-82
2022/04/01 01:44:25;;;;;;;6.18;4.60;;;;;;;4.33;60.63;99683.50;685015;28;1192;-82
2022/04/01 01:44:46;;;;;;;6.35;4.82;;;;;;;4.26;60.94;99682.41;693096;28;1706;-82
2022/04/01 01:45:08;;;;;;;6.35;4.88;;;;;;;4.26;60.92;99681.53;690431;28;1954;-82
2022/04/01 01:45:29;;;;;;;6.55;4.78;;;;;;;4.29;60.68;99681.66;691110;28;1139;-82
2022/04/01 01:45:50;;;;;;;6.60;4.75;;;;;;;4.24;60.73;99679.78;690551;28;787;-82
2022/04/01 01:46:11;;;;;;;4.90;4.50;;;;;;;4.24;61.17;99677.19;690634;28;1103;-82
2022/04/01 01:46:31;;;;;;;4.85;4.45;;;;;;;4.32;60.74;99687.81;688114;28;1581;-82
2022/04/01 01:46:53;;;;;;;5.10;4.60;;;;;;;4.32;60.72;99684.34;693200;28;1351;-82
2022/04/01 01:47:15;;;;;;;5.40;4.43;;;;;;;4.29;60.73;99679.06;690442;28;966;-82